createdAt,value
2023-05-21T00:02:30.080Z,23.30
2023-05-21T00:05:02.052Z,26.90
2023-05-21T00:07:33.861Z,26.33
2023-05-21T00:10:06.495Z,27.80
2023-05-21T00:12:38.350Z,26.77
2023-05-21T00:15:10.914Z,27.33
2023-05-21T00:17:43.361Z,28.70
2023-05-21T00:20:16.332Z,27.03
2023-05-21T00:22:48.265Z,30.63
2023-05-21T00:25:20.113Z,30.10
2023-05-21T00:27:51.865Z,29.83
2023-05-21T00:30:23.827Z,31.37
2023-05-21T00:32:58.540Z,30.53
2023-05-21T00:35:30.574Z,28.20
2023-05-21T00:38:02.465Z,28.90
2023-05-21T00:40:36.331Z,34.10
2023-05-21T00:43:10.716Z,26.80
2023-05-21T00:45:47.473Z,28.00
2023-05-21T00:48:20.590Z,34.90
2023-05-21T00:50:53.292Z,32.87
2023-05-21T00:53:25.729Z,27.90
2023-05-21T00:55:57.794Z,28.30
2023-05-21T00:58:33.485Z,30.27
2023-05-21T01:01:07.155Z,33.47
2023-05-21T01:03:39.285Z,32.53
2023-05-21T01:06:13.999Z,28.73
2023-05-21T01:08:46.704Z,34.97
2023-05-21T01:11:19.076Z,28.83
2023-05-21T01:13:51.364Z,32.83
2023-05-21T01:16:23.228Z,36.23
2023-05-21T01:18:55.638Z,34.40
2023-05-21T01:21:30.361Z,35.13
2023-05-21T01:24:05.513Z,34.63
2023-05-21T01:26:38.835Z,34.67
2023-05-21T01:29:14.179Z,33.27
2023-05-21T01:32:04.751Z,34.23
2023-05-21T01:34:55.908Z,34.60
2023-05-21T01:37:33.905Z,32.97
2023-05-21T01:40:13.456Z,46.03
2023-05-21T01:42:47.279Z,31.40
2023-05-21T01:45:19.951Z,34.67
2023-05-21T01:47:55.704Z,33.73
2023-05-21T01:50:27.812Z,30.77
2023-05-21T01:53:01.186Z,33.08
2023-05-21T01:55:33.494Z,32.33
2023-05-21T01:58:05.456Z,32.83
2023-05-21T02:00:37.527Z,36.87
2023-05-21T02:03:09.445Z,30.90
2023-05-21T02:05:41.288Z,32.50
2023-05-21T02:08:15.181Z,33.27
2023-05-21T02:10:46.991Z,33.27
2023-05-21T02:13:24.274Z,36.23
2023-05-21T02:15:58.045Z,34.23
2023-05-21T02:18:29.843Z,31.60
2023-05-21T02:21:01.594Z,31.97
2023-05-21T02:23:33.392Z,33.53
2023-05-21T02:26:05.460Z,36.37
2023-05-21T02:28:37.283Z,31.77
2023-05-21T02:31:09.021Z,41.30
2023-05-21T02:33:42.507Z,32.83
2023-05-21T02:36:15.378Z,36.20
2023-05-21T02:38:47.752Z,32.23
2023-05-21T02:41:19.475Z,32.75
2023-05-21T02:43:51.272Z,34.43
2023-05-21T02:46:23.104Z,33.27
2023-05-21T02:48:54.886Z,33.47
2023-05-21T02:51:26.686Z,33.20
2023-05-21T02:53:58.465Z,30.47
2023-05-21T02:56:30.283Z,29.70
2023-05-21T02:59:01.984Z,29.03
2023-05-21T03:01:33.798Z,25.70
2023-05-21T03:04:05.581Z,28.03
2023-05-21T03:06:37.355Z,31.17
2023-05-21T03:09:09.136Z,29.07
2023-05-21T03:11:40.876Z,32.97
2023-05-21T03:14:12.590Z,31.63
2023-05-21T03:16:44.602Z,35.23
2023-05-21T03:19:16.497Z,29.47
2023-05-21T03:21:49.143Z,32.00
2023-05-21T03:24:20.969Z,36.20
2023-05-21T03:26:52.759Z,31.93
2023-05-21T03:29:24.569Z,34.53
2023-05-21T03:31:56.861Z,36.67
2023-05-21T03:34:28.656Z,32.00
2023-05-21T03:37:00.603Z,31.30
2023-05-21T03:39:32.387Z,32.83
2023-05-21T03:42:04.325Z,32.13
2023-05-21T03:44:36.082Z,32.80
2023-05-21T03:47:07.827Z,35.90
2023-05-21T03:49:39.633Z,31.60
2023-05-21T03:52:11.357Z,33.07
2023-05-21T03:54:43.062Z,33.90
2023-05-21T03:57:14.880Z,29.40
2023-05-21T03:59:46.653Z,35.43
2023-05-21T04:02:18.459Z,39.20
2023-05-21T04:04:51.607Z,36.50
2023-05-21T04:07:23.917Z,39.03
2023-05-21T04:09:56.051Z,39.13
2023-05-21T04:12:27.848Z,50.83
2023-05-21T04:14:59.568Z,44.67
2023-05-21T04:17:31.296Z,37.70
2023-05-21T04:20:03.866Z,42.37
2023-05-21T04:22:35.665Z,41.10
2023-05-21T04:25:07.969Z,50.83
2023-05-21T04:27:39.816Z,40.23
2023-05-21T04:30:11.731Z,39.37
2023-05-21T04:32:45.766Z,41.10
2023-05-21T04:35:17.655Z,38.80
2023-05-21T04:37:49.343Z,38.63
2023-05-21T04:40:24.280Z,38.93
2023-05-21T04:42:55.987Z,36.23
2023-05-21T04:45:28.291Z,36.30
2023-05-21T04:48:00.436Z,35.73
2023-05-21T04:50:33.745Z,36.03
2023-05-21T04:53:05.495Z,32.50
2023-05-21T04:55:39.815Z,37.33
2023-05-21T04:58:11.724Z,32.30
2023-05-21T05:00:46.137Z,32.70
2023-05-21T05:03:18.191Z,35.00
2023-05-21T05:05:50.033Z,31.10
2023-05-21T05:08:22.067Z,36.40
2023-05-21T05:10:53.784Z,34.73
2023-05-21T05:13:26.214Z,35.93
2023-05-21T05:15:57.985Z,33.80
2023-05-21T05:18:29.902Z,31.70
2023-05-21T05:21:02.004Z,32.17
2023-05-21T05:23:33.839Z,35.70
2023-05-21T05:26:05.640Z,33.77
2023-05-21T05:28:37.489Z,31.73
2023-05-21T05:31:09.311Z,30.23
2023-05-21T05:33:41.532Z,32.93
2023-05-21T05:36:13.232Z,27.83
2023-05-21T05:38:44.984Z,32.00
2023-05-21T05:41:16.729Z,31.23
2023-05-21T05:43:48.549Z,25.87
2023-05-21T05:46:20.413Z,30.67
2023-05-21T05:48:52.159Z,30.00
2023-05-21T05:51:23.912Z,31.67
2023-05-21T05:53:55.866Z,32.80
2023-05-21T05:56:27.800Z,28.10
2023-05-21T05:58:59.825Z,31.70
2023-05-21T06:01:32.042Z,26.77
2023-05-21T06:04:03.883Z,24.97
2023-05-21T06:06:36.762Z,30.63
2023-05-21T06:09:08.492Z,29.53
2023-05-21T06:11:40.403Z,26.40
2023-05-21T06:14:12.110Z,24.53
2023-05-21T06:16:44.015Z,26.00
2023-05-21T06:19:15.997Z,27.30
2023-05-21T06:21:48.017Z,27.10
2023-05-21T06:24:19.749Z,24.73
2023-05-21T06:26:51.755Z,29.87
2023-05-21T06:29:23.564Z,23.20
2023-05-21T06:31:55.299Z,24.97
2023-05-21T06:34:27.583Z,24.10
2023-05-21T06:36:59.293Z,22.47
2023-05-21T06:39:31.117Z,31.27
2023-05-21T06:42:02.892Z,24.23
2023-05-21T06:44:34.627Z,24.33
2023-05-21T06:47:06.452Z,26.83
2023-05-21T06:49:38.302Z,24.57
2023-05-21T06:52:10.192Z,23.77
2023-05-21T06:54:42.495Z,26.33
2023-05-21T06:57:15.226Z,23.50
2023-05-21T06:59:47.008Z,23.33
2023-05-21T07:02:18.771Z,21.97
2023-05-21T07:04:50.642Z,23.00
2023-05-21T07:07:22.505Z,20.53
2023-05-21T07:09:54.308Z,23.70
2023-05-21T07:12:26.060Z,20.80
2023-05-21T07:14:59.283Z,20.90
2023-05-21T07:17:31.191Z,27.63
2023-05-21T07:20:04.427Z,22.73
2023-05-21T07:22:38.952Z,20.20
2023-05-21T07:25:10.783Z,21.80
2023-05-21T07:27:42.680Z,22.77
2023-05-21T07:30:15.098Z,22.13
2023-05-21T07:32:46.957Z,24.53
2023-05-21T07:35:20.372Z,27.77
2023-05-21T07:37:52.207Z,20.60
2023-05-21T07:40:23.995Z,21.50
2023-05-21T07:42:56.293Z,31.55
2023-05-21T07:45:27.995Z,21.47
2023-05-21T07:47:59.807Z,20.93
2023-05-21T07:50:31.536Z,21.70
2023-05-21T07:53:03.725Z,20.30
2023-05-21T07:55:36.661Z,21.87
2023-05-21T07:58:09.080Z,22.33
2023-05-21T08:00:45.186Z,21.93
2023-05-21T08:03:17.809Z,20.03
2023-05-21T08:05:50.643Z,22.57
2023-05-21T08:08:23.439Z,21.20
2023-05-21T08:10:55.446Z,21.10
2023-05-21T08:13:27.194Z,19.73
2023-05-21T08:15:58.959Z,26.92
2023-05-21T08:18:30.752Z,23.43
2023-05-21T08:21:02.543Z,19.40
2023-05-21T08:23:34.295Z,18.30
2023-05-21T08:26:07.063Z,20.77
2023-05-21T08:28:39.530Z,19.67
2023-05-21T08:31:12.312Z,22.90
2023-05-21T08:33:51.585Z,19.23
2023-05-21T08:36:23.480Z,22.67
2023-05-21T08:38:55.463Z,19.30
2023-05-21T08:41:28.746Z,17.93
2023-05-21T08:44:02.432Z,18.73
2023-05-21T08:46:35.723Z,18.30
2023-05-21T08:49:12.993Z,21.38
2023-05-21T08:51:46.463Z,17.08
2023-05-21T08:54:18.504Z,19.30
2023-05-21T08:56:50.871Z,21.20
2023-05-21T08:59:23.493Z,17.25
2023-05-21T09:01:57.556Z,16.60
2023-05-21T09:04:29.631Z,16.88
2023-05-21T09:07:02.996Z,20.10
2023-05-21T09:09:41.896Z,17.25
2023-05-21T09:12:13.641Z,17.08
2023-05-21T09:14:47.910Z,17.20
2023-05-21T09:17:20.443Z,16.80
2023-05-21T09:20:11.175Z,16.98
2023-05-21T09:22:51.581Z,17.45
2023-05-21T09:25:28.014Z,18.27
2023-05-21T09:28:00.023Z,17.00
2023-05-21T09:30:35.733Z,18.38
2023-05-21T09:33:07.821Z,15.32
2023-05-21T09:35:47.040Z,16.00
2023-05-21T09:38:21.836Z,17.70
2023-05-21T09:40:56.919Z,20.35
2023-05-21T09:43:28.881Z,16.40
2023-05-21T09:46:02.153Z,16.52
2023-05-21T09:48:36.421Z,19.58
2023-05-21T09:51:13.685Z,17.85
2023-05-21T09:53:57.736Z,16.75
2023-05-21T09:56:32.050Z,15.40
2023-05-21T09:59:04.530Z,16.50
2023-05-21T10:01:37.527Z,17.48
2023-05-21T10:04:10.516Z,16.08
2023-05-21T10:06:47.821Z,15.68
2023-05-21T10:09:20.911Z,15.30
2023-05-21T10:11:54.515Z,17.42
2023-05-21T10:14:29.989Z,16.63
2023-05-21T10:17:02.047Z,16.00
2023-05-21T10:19:36.392Z,15.95
2023-05-21T10:22:09.783Z,16.02
2023-05-21T10:24:43.435Z,15.10
2023-05-21T10:27:15.483Z,24.77
2023-05-21T10:29:48.916Z,16.98
2023-05-21T10:32:22.909Z,17.73
2023-05-21T10:34:54.969Z,17.63
2023-05-21T10:37:27.598Z,31.43
2023-05-21T10:39:59.317Z,43.88
2023-05-21T10:42:30.964Z,17.58
2023-05-21T10:45:27.699Z,28.52
2023-05-21T10:48:20.470Z,20.23
2023-05-21T10:50:55.432Z,22.83
2023-05-21T10:54:04.535Z,16.90
2023-05-21T10:56:46.451Z,22.50
2023-05-21T10:59:43.276Z,17.60
2023-05-21T11:02:16.480Z,15.93
2023-05-21T11:04:57.824Z,15.57
2023-05-21T11:07:57.206Z,17.45
2023-05-21T11:10:36.259Z,15.05
2023-05-21T11:13:16.254Z,15.55
2023-05-21T11:16:02.693Z,27.80
2023-05-21T11:18:40.144Z,19.45
2023-05-21T11:21:17.027Z,18.13
2023-05-21T11:23:52.507Z,19.17
2023-05-21T11:26:26.966Z,21.67
2023-05-21T11:29:04.541Z,17.88
2023-05-21T11:31:40.034Z,15.27
2023-05-21T11:34:48.070Z,15.18
2023-05-21T11:37:22.508Z,16.23
2023-05-21T11:39:55.448Z,16.63
2023-05-21T11:42:31.522Z,15.97
2023-05-21T11:45:04.171Z,15.57
2023-05-21T11:47:36.374Z,21.37
2023-05-21T11:50:13.422Z,16.43
2023-05-21T11:52:45.980Z,17.60
2023-05-21T11:55:25.940Z,15.90
2023-05-21T11:57:59.011Z,16.83
2023-05-21T12:00:31.094Z,28.23
2023-05-21T12:03:03.110Z,13.67
2023-05-21T12:05:55.978Z,14.90
2023-05-21T12:08:27.775Z,15.40
2023-05-21T12:11:00.462Z,15.23
2023-05-21T12:13:32.433Z,17.80
2023-05-21T12:16:06.785Z,15.93
2023-05-21T12:18:38.996Z,16.83
2023-05-21T12:21:12.487Z,19.70
2023-05-21T12:23:44.542Z,17.60
2023-05-21T12:26:16.533Z,21.30
2023-05-21T12:28:49.241Z,18.17
2023-05-21T12:31:24.404Z,18.00
2023-05-21T12:33:56.148Z,16.67
2023-05-21T12:36:30.452Z,23.20
2023-05-21T12:39:02.207Z,16.43
2023-05-21T12:41:33.976Z,16.07
2023-05-21T12:44:08.658Z,15.30
2023-05-21T12:46:41.710Z,20.77
2023-05-21T12:49:35.481Z,19.30
2023-05-21T12:52:14.978Z,15.80
2023-05-21T12:54:51.150Z,20.00
2023-05-21T12:57:37.143Z,17.97
2023-05-21T13:00:11.146Z,14.73
2023-05-21T13:02:45.426Z,19.70
2023-05-21T13:05:18.341Z,15.17
2023-05-21T13:07:51.642Z,13.77
2023-05-21T13:10:23.451Z,13.20
2023-05-21T13:12:55.358Z,15.70
2023-05-21T13:15:27.150Z,16.30
2023-05-21T13:18:01.002Z,15.97
2023-05-21T13:20:32.952Z,15.13
2023-05-21T13:23:06.714Z,13.17
2023-05-21T13:25:39.544Z,14.00
2023-05-21T13:28:15.058Z,17.43
2023-05-21T13:30:46.857Z,16.30
2023-05-21T13:33:18.689Z,15.67
2023-05-21T13:35:51.834Z,20.55
2023-05-21T13:38:23.660Z,17.50
2023-05-21T13:40:55.629Z,15.80
2023-05-21T13:43:27.369Z,14.43
2023-05-21T13:45:59.465Z,14.27
2023-05-21T13:48:31.297Z,14.47
2023-05-21T13:51:03.112Z,14.33
2023-05-21T13:53:34.876Z,13.97
2023-05-21T13:56:06.897Z,13.63
2023-05-21T13:58:40.560Z,12.83
2023-05-21T14:01:12.419Z,28.37
2023-05-21T14:03:44.226Z,18.93
2023-05-21T14:06:16.103Z,11.63
2023-05-21T14:08:47.825Z,11.98
2023-05-21T14:11:19.584Z,11.97
2023-05-21T14:13:51.373Z,13.37
2023-05-21T14:16:24.920Z,12.17
2023-05-21T14:18:58.052Z,12.97
2023-05-21T14:21:29.792Z,10.97
2023-05-21T14:24:01.627Z,11.00
2023-05-21T14:26:33.545Z,10.47
2023-05-21T14:29:05.330Z,10.97
2023-05-21T14:31:38.051Z,10.87
2023-05-21T14:34:10.190Z,12.43
2023-05-21T14:36:42.018Z,10.47
2023-05-21T14:39:13.811Z,10.27
2023-05-21T14:41:45.602Z,10.10
2023-05-21T14:44:17.596Z,9.93
2023-05-21T14:46:49.495Z,10.87
2023-05-21T14:49:21.344Z,10.17
2023-05-21T14:51:53.173Z,10.00
2023-05-21T14:54:24.917Z,9.87
2023-05-21T14:56:56.692Z,9.90
2023-05-21T14:59:28.424Z,9.73
2023-05-21T15:02:00.330Z,11.10
2023-05-21T15:04:32.059Z,10.30
2023-05-21T15:07:04.142Z,9.07
2023-05-21T15:09:36.053Z,8.43
2023-05-21T15:12:07.874Z,7.27
2023-05-21T15:14:40.840Z,7.30
2023-05-21T15:17:12.558Z,8.00
2023-05-21T15:19:44.333Z,8.43
2023-05-21T15:22:16.102Z,8.43
2023-05-21T15:24:47.945Z,9.03
2023-05-21T15:27:19.645Z,8.43
2023-05-21T15:29:52.294Z,8.40
2023-05-21T15:32:24.103Z,8.70
2023-05-21T15:34:56.098Z,8.23
2023-05-21T15:37:27.991Z,9.03
2023-05-21T15:39:59.856Z,8.47
2023-05-21T15:42:31.866Z,8.30
2023-05-21T15:45:04.067Z,9.20
2023-05-21T15:47:36.695Z,11.80
2023-05-21T15:50:09.953Z,8.38
2023-05-21T15:52:42.329Z,8.70
2023-05-21T15:55:14.351Z,8.57
2023-05-21T15:57:46.443Z,8.27
2023-05-21T16:00:18.549Z,8.00
2023-05-21T16:02:51.584Z,7.47
2023-05-21T16:05:23.583Z,7.47
2023-05-21T16:07:55.335Z,10.17
2023-05-21T16:10:27.197Z,6.30
2023-05-21T16:12:59.226Z,7.20
2023-05-21T16:15:32.445Z,6.40
2023-05-21T16:18:04.462Z,6.37
2023-05-21T16:20:36.286Z,6.63
2023-05-21T16:23:08.147Z,6.70
2023-05-21T16:25:40.001Z,7.10
2023-05-21T16:28:12.321Z,5.43
2023-05-21T16:30:44.142Z,6.17
2023-05-21T16:33:16.501Z,6.07
2023-05-21T16:35:48.402Z,6.13
2023-05-21T16:38:21.334Z,6.13
2023-05-21T16:40:53.084Z,8.77
2023-05-21T16:43:24.895Z,6.13
2023-05-21T16:45:56.646Z,5.87
2023-05-21T16:48:28.422Z,5.83
2023-05-21T16:51:00.303Z,6.27
2023-05-21T16:53:32.091Z,6.57
2023-05-21T16:56:03.800Z,6.73
2023-05-21T16:58:36.165Z,6.17
2023-05-21T17:01:07.994Z,6.83
2023-05-21T17:03:41.739Z,8.50
2023-05-21T17:06:15.144Z,7.13
2023-05-21T17:08:46.953Z,6.93
2023-05-21T17:11:18.751Z,8.20
2023-05-21T17:13:50.510Z,7.43
2023-05-21T17:16:22.374Z,6.97
2023-05-21T17:18:54.156Z,7.47
2023-05-21T17:21:26.795Z,7.87
2023-05-21T17:23:58.561Z,7.20
2023-05-21T17:26:30.501Z,6.60
2023-05-21T17:29:02.313Z,12.50
2023-05-21T17:31:34.287Z,6.97
2023-05-21T17:34:06.044Z,7.17
2023-05-21T17:36:37.757Z,10.77
2023-05-21T17:39:09.502Z,7.50
2023-05-21T17:41:41.251Z,7.63
2023-05-21T17:44:16.992Z,7.40
2023-05-21T17:46:50.295Z,7.13
2023-05-21T17:49:22.345Z,9.50
2023-05-21T17:51:54.798Z,6.80
2023-05-21T17:54:26.727Z,8.50
2023-05-21T17:56:58.505Z,7.87
2023-05-21T17:59:30.359Z,6.80
2023-05-21T18:02:02.195Z,6.47
2023-05-21T18:04:34.131Z,7.17
2023-05-21T18:07:06.366Z,6.77
2023-05-21T18:09:38.149Z,8.03
2023-05-21T18:12:09.994Z,6.47
2023-05-21T18:14:41.704Z,7.90
2023-05-21T18:17:13.543Z,8.33
2023-05-21T18:19:45.381Z,6.80
2023-05-21T18:22:17.159Z,7.17
2023-05-21T18:24:48.890Z,7.93
2023-05-21T18:27:20.651Z,7.07
2023-05-21T18:29:52.426Z,8.17
2023-05-21T18:32:24.373Z,7.40
2023-05-21T18:34:56.588Z,8.27
2023-05-21T18:37:29.148Z,34.00
2023-05-21T18:40:00.925Z,23.27
2023-05-21T18:42:32.743Z,13.97
2023-05-21T18:45:08.698Z,12.33
2023-05-21T18:47:40.726Z,11.33
2023-05-21T18:50:14.192Z,9.27
2023-05-21T18:52:46.737Z,8.40
2023-05-21T18:55:18.803Z,9.17
2023-05-21T18:57:50.845Z,10.00
2023-05-21T19:00:22.759Z,9.80
2023-05-21T19:02:55.740Z,10.77
2023-05-21T19:05:28.169Z,12.10
2023-05-21T19:08:00.022Z,12.80
2023-05-21T19:10:32.416Z,12.63
2023-05-21T19:13:06.121Z,15.17
2023-05-21T19:15:38.156Z,14.90
2023-05-21T19:18:09.988Z,18.60
2023-05-21T19:20:41.863Z,14.67
2023-05-21T19:23:14.035Z,23.03
2023-05-21T19:25:45.912Z,21.23
2023-05-21T19:28:17.766Z,15.87
2023-05-21T19:30:49.602Z,19.27
2023-05-21T19:33:21.684Z,19.70
2023-05-21T19:35:53.572Z,21.80
2023-05-21T19:38:25.326Z,25.23
2023-05-21T19:40:57.146Z,21.70
2023-05-21T19:43:28.942Z,23.43
2023-05-21T19:46:00.733Z,28.30
2023-05-21T19:48:32.648Z,26.50
2023-05-21T19:51:04.546Z,19.52
2023-05-21T19:53:36.519Z,15.63
2023-05-21T19:56:08.430Z,17.53
2023-05-21T19:58:40.868Z,13.27
2023-05-21T20:01:14.355Z,15.90
2023-05-21T20:03:46.328Z,14.20
2023-05-21T20:06:20.564Z,14.50
2023-05-21T20:08:52.430Z,14.97
2023-05-21T20:11:24.343Z,14.30
2023-05-21T20:13:56.055Z,15.73
2023-05-21T20:16:28.290Z,15.40
2023-05-21T20:19:01.728Z,14.83
2023-05-21T20:21:33.678Z,14.20
2023-05-21T20:24:05.795Z,18.52
2023-05-21T20:26:39.793Z,15.60
2023-05-21T20:29:11.684Z,18.13
2023-05-21T20:31:43.853Z,15.93
2023-05-21T20:34:17.560Z,15.10
2023-05-21T20:36:49.665Z,15.00
2023-05-21T20:39:22.949Z,15.88
2023-05-21T20:41:55.131Z,16.20
2023-05-21T20:44:27.608Z,16.53
2023-05-21T20:47:01.766Z,15.70
2023-05-21T20:49:33.687Z,19.47
2023-05-21T20:52:06.179Z,16.20
2023-05-21T20:54:37.924Z,19.10
2023-05-21T20:57:09.683Z,19.50
2023-05-21T20:59:41.438Z,18.20
2023-05-21T21:02:13.354Z,18.00
2023-05-21T21:04:51.713Z,24.53
2023-05-21T21:07:23.490Z,18.83
2023-05-21T21:09:55.640Z,17.33
2023-05-21T21:12:27.391Z,22.47
2023-05-21T21:14:59.194Z,21.57
2023-05-21T21:17:31.030Z,17.90
2023-05-21T21:20:02.844Z,17.73
2023-05-21T21:22:34.659Z,17.03
2023-05-21T21:25:06.800Z,18.20
2023-05-21T21:27:38.680Z,20.90
2023-05-21T21:30:11.042Z,16.77
2023-05-21T21:32:42.921Z,16.40
2023-05-21T21:35:14.842Z,17.70
2023-05-21T21:37:46.621Z,17.60
2023-05-21T21:40:18.435Z,25.37
2023-05-21T21:42:50.311Z,18.02
2023-05-21T21:45:22.102Z,17.33
2023-05-21T21:47:53.955Z,18.63
2023-05-21T21:50:26.011Z,17.37
2023-05-21T21:52:57.968Z,18.57
2023-05-21T21:55:29.709Z,18.53
2023-05-21T21:58:01.514Z,19.67
2023-05-21T22:00:33.565Z,19.77
2023-05-21T22:03:05.395Z,18.93
2023-05-21T22:05:38.175Z,18.37
2023-05-21T22:08:10.075Z,18.40
2023-05-21T22:10:41.825Z,20.07
2023-05-21T22:13:14.189Z,19.20
2023-05-21T22:15:46.179Z,20.05
2023-05-21T22:18:28.443Z,20.37
2023-05-21T22:21:04.179Z,19.07
2023-05-21T22:23:36.840Z,17.67
2023-05-21T22:26:09.644Z,21.60
2023-05-21T22:28:42.101Z,20.80
2023-05-21T22:31:13.905Z,18.33
2023-05-21T22:33:45.660Z,19.13
2023-05-21T22:36:17.466Z,21.13
2023-05-21T22:38:49.214Z,19.07
2023-05-21T22:41:21.868Z,21.03
2023-05-21T22:43:53.664Z,18.23
2023-05-21T22:46:25.550Z,19.00
2023-05-21T22:48:57.304Z,19.90
2023-05-21T22:51:34.863Z,18.00
2023-05-21T22:54:06.833Z,17.80
2023-05-21T22:56:38.614Z,19.47
2023-05-21T22:59:10.465Z,18.63
2023-05-21T23:01:42.447Z,26.53
2023-05-21T23:04:15.178Z,19.03
2023-05-21T23:06:46.921Z,26.33
2023-05-21T23:09:18.707Z,24.30
2023-05-21T23:11:50.869Z,19.13
2023-05-21T23:14:22.615Z,21.23
2023-05-21T23:16:54.846Z,19.13
2023-05-21T23:19:26.722Z,21.42
2023-05-21T23:21:58.677Z,22.97
2023-05-21T23:24:30.810Z,26.30
2023-05-21T23:27:03.620Z,19.60
2023-05-21T23:29:35.432Z,18.90
2023-05-21T23:32:07.643Z,19.40
2023-05-21T23:34:39.539Z,20.70
2023-05-21T23:37:11.357Z,19.80
2023-05-21T23:39:45.547Z,19.97
2023-05-21T23:42:17.824Z,20.63
2023-05-21T23:44:49.631Z,20.93
2023-05-21T23:47:21.379Z,21.87
2023-05-21T23:49:53.118Z,19.30
2023-05-21T23:52:25.061Z,19.85
2023-05-21T23:54:57.500Z,19.37
2023-05-21T23:57:29.248Z,21.03
